Time;durP1;ratioP1;P1;durP2;ratioP2;P2;SDS_P1;SDS_P2;PMS_P1;PMS_P2;Temp;Humidity;BMP_temperature;BMP_pressure;BME280_temperature;BME280_humidity;BME280_pressure;Samples;Min_cycle;Max_cycle;Signal;HPM_P1;HPM_P2
2023/10/01 00:00:46;;;;;;;8.23;2.80;;;25.10;99.90;;;;;;5051496;28;20047;-47
2023/10/01 00:03:16;;;;;;;6.85;2.70;;;25.10;99.90;;;;;;5047650;28;20492;-47
2023/10/01 00:05:42;;;;;;;4.47;2.78;;;25.10;99.90;;;;;;5049181;28;20021;-47
2023/10/01 00:08:08;;;;;;;5.82;2.70;;;25.10;99.90;;;;;;5033891;28;20029;-47
2023/10/01 00:10:34;;;;;;;6.43;3.05;;;25.10;99.90;;;;;;5033675;28;20037;-47
2023/10/01 00:13:01;;;;;;;6.38;3.05;;;25.00;99.90;;;;;;5051526;28;20025;-46
2023/10/01 00:15:28;;;;;;;6.70;2.95;;;25.00;99.90;;;;;;5033760;28;20024;-47
2023/10/01 00:17:54;;;;;;;7.22;2.53;;;25.00;99.90;;;;;;5052392;28;20071;-46
2023/10/01 00:20:25;;;;;;;6.60;2.65;;;25.00;99.90;;;;;;5052315;28;20033;-46
2023/10/01 00:22:57;;;;;;;6.88;2.88;;;25.00;99.90;;;;;;5052666;28;20100;-46
2023/10/01 00:25:23;;;;;;;6.47;2.75;;;25.10;99.90;;;;;;5052632;28;20030;-46
2023/10/01 00:27:50;;;;;;;6.38;2.90;;;25.10;99.90;;;;;;5051577;28;20032;-47
2023/10/01 00:30:17;;;;;;;6.53;2.60;;;25.20;99.90;;;;;;5051935;28;20345;-48
2023/10/01 00:32:43;;;;;;;10.50;3.00;;;25.20;99.90;;;;;;5040046;28;20025;-47
2023/10/01 00:35:12;;;;;;;5.13;3.25;;;25.20;99.90;;;;;;5052279;28;20104;-47
2023/10/01 00:37:41;;;;;;;4.60;2.55;;;25.30;99.90;;;;;;5050656;28;20435;-47
2023/10/01 00:40:09;;;;;;;4.72;2.70;;;25.30;99.90;;;;;;5052287;28;20061;-47
2023/10/01 00:42:37;;;;;;;4.63;2.28;;;25.30;99.90;;;;;;5051986;28;20024;-47
2023/10/01 00:45:03;;;;;;;;;;;25.40;99.90;;;;;;5052617;28;20029;-47
2023/10/01 00:47:32;;;;;;;4.38;2.80;;;25.40;99.90;;;;;;5034209;28;20260;-47
2023/10/01 00:49:59;;;;;;;5.97;2.75;;;25.40;99.90;;;;;;5052147;28;20032;-47
2023/10/01 00:52:25;;;;;;;3.83;2.47;;;25.40;99.90;;;;;;5052184;28;20091;-47
2023/10/01 00:54:51;;;;;;;7.25;3.25;;;25.40;99.90;;;;;;5052051;28;20029;-47
2023/10/01 00:57:17;;;;;;;7.32;3.17;;;25.40;99.90;;;;;;5052129;28;20389;-47
2023/10/01 00:59:44;;;;;;;7.05;2.40;;;25.40;99.90;;;;;;5051826;28;20449;-47
2023/10/01 01:02:15;;;;;;;6.07;2.75;;;25.40;99.90;;;;;;5063565;23;20045;-45
2023/10/01 01:04:45;;;;;;;4.45;2.60;;;25.40;99.90;;;;;;5051877;28;20540;-44
2023/10/01 01:07:16;;;;;;;5.45;2.60;;;25.40;99.90;;;;;;5052042;28;20100;-44
2023/10/01 01:09:42;;;;;;;8.68;2.58;;;25.50;99.90;;;;;;5051745;28;20468;-45
2023/10/01 01:12:08;;;;;;;5.35;3.10;;;25.50;99.90;;;;;;5034052;28;20106;-45
2023/10/01 01:14:35;;;;;;;3.15;2.42;;;25.50;99.90;;;;;;5051587;28;20025;-45
2023/10/01 01:17:02;;;;;;;5.50;2.88;;;25.50;99.90;;;;;;5051820;28;20075;-44
2023/10/01 01:19:29;;;;;;;6.15;3.17;;;25.50;99.90;;;;;;5051987;28;20040;-45
2023/10/01 01:21:55;;;;;;;4.25;2.72;;;25.50;99.90;;;;;;5051836;28;20028;-45
2023/10/01 01:24:22;;;;;;;4.22;2.55;;;25.50;99.90;;;;;;5051611;28;20025;-45
2023/10/01 01:26:51;;;;;;;3.80;2.45;;;25.50;99.90;;;;;;5051632;28;20342;-45
2023/10/01 01:29:29;;;;;;;4.38;2.40;;;25.50;99.90;;;;;;5051772;28;20298;-45
2023/10/01 01:32:06;;;;;;;;;;;25.50;99.90;;;;;;5052392;28;20107;-49
2023/10/01 01:34:35;;;;;;;5.85;2.92;;;25.50;99.90;;;;;;5051622;28;20337;-45
2023/10/01 01:37:08;;;;;;;4.53;2.25;;;25.50;99.90;;;;;;5051544;28;20021;-45
2023/10/01 01:39:54;;;;;;;3.55;2.55;;;25.50;99.90;;;;;;5053198;28;20025;-45
2023/10/01 01:42:21;;;;;;;5.57;2.80;;;25.50;99.90;;;;;;5037445;28;21012;-45
2023/10/01 01:45:15;;;;;;;5.03;2.85;;;25.50;99.90;;;;;;5055598;28;20014;-45
2023/10/01 01:47:39;;;;;;;8.55;2.63;;;25.50;99.90;;;;;;5055093;28;20025;-44
2023/10/01 01:50:18;;;;;;;6.75;2.58;;;25.50;99.90;;;;;;5055463;28;20029;-44
2023/10/01 01:52:57;;;;;;;6.22;2.72;;;25.50;99.90;;;;;;5055170;28;20044;-44
2023/10/01 01:55:26;;;;;;;4.70;2.80;;;25.50;99.90;;;;;;5055461;28;20017;-45
2023/10/01 01:58:10;;;;;;;4.00;2.63;;;25.50;99.90;;;;;;5055142;28;20629;-46
2023/10/01 02:00:38;;;;;;;4.70;2.78;;;25.50;99.90;;;;;;5066416;23;20036;-46
2023/10/01 02:03:10;;;;;;;6.65;2.25;;;25.40;99.90;;;;;;5037170;28;20481;-46
2023/10/01 02:05:41;;;;;;;5.38;2.53;;;25.50;99.90;;;;;;5055210;28;20035;-47
2023/10/01 02:08:10;;;;;;;4.88;2.58;;;25.50;99.90;;;;;;5037134;28;20032;-46
2023/10/01 02:10:44;;;;;;;5.40;2.55;;;25.40;99.90;;;;;;5055049;28;20465;-48
2023/10/01 02:13:16;;;;;;;6.22;3.10;;;25.40;99.90;;;;;;5054898;28;20112;-46
2023/10/01 02:15:45;;;;;;;3.83;2.30;;;25.40;99.90;;;;;;5037780;28;20025;-47
2023/10/01 02:18:18;;;;;;;5.65;2.65;;;25.40;99.90;;;;;;5054847;28;20021;-47
2023/10/01 02:20:56;;;;;;;5.85;2.63;;;25.40;99.90;;;;;;5054809;28;20146;-47
2023/10/01 02:23:33;;;;;;;6.07;2.33;;;25.40;99.90;;;;;;5054793;28;20421;-46
2023/10/01 02:26:00;;;;;;;5.53;2.97;;;25.40;99.90;;;;;;5055036;28;20025;-46
2023/10/01 02:28:32;;;;;;;5.43;2.78;;;25.40;99.90;;;;;;5054476;28;20116;-46
2023/10/01 02:31:06;;;;;;;4.13;2.60;;;25.40;99.90;;;;;;5054898;28;20033;-46
2023/10/01 02:36:22;;;;;;;4.75;3.08;;;25.40;99.90;;;;;;5054918;28;20401;-46
2023/10/01 02:38:53;;;;;;;5.72;2.60;;;25.30;99.90;;;;;;5054499;28;20021;-46
2023/10/01 02:41:25;;;;;;;5.97;2.63;;;25.30;99.90;;;;;;5054369;28;20021;-46
2023/10/01 02:43:55;;;;;;;5.60;2.55;;;25.30;99.90;;;;;;5054298;28;20025;-46
2023/10/01 02:46:27;;;;;;;6.25;2.92;;;25.30;99.90;;;;;;5054576;28;20020;-46
2023/10/01 02:49:04;;;;;;;4.78;2.42;;;25.30;99.90;;;;;;5054480;28;20094;-46
2023/10/01 02:51:37;;;;;;;4.57;2.70;;;25.30;99.90;;;;;;5035661;28;20469;-46
2023/10/01 02:54:09;;;;;;;4.28;2.53;;;25.30;99.90;;;;;;5054251;28;20025;-46
2023/10/01 02:56:52;;;;;;;2.60;1.98;;;25.30;99.90;;;;;;5054236;28;20017;-46
2023/10/01 02:59:20;;;;;;;5.00;2.28;;;25.30;99.90;;;;;;5054126;28;20116;-46
2023/10/01 03:01:46;;;;;;;3.35;2.20;;;25.30;99.90;;;;;;5054508;28;20052;-46
2023/10/01 03:04:16;;;;;;;3.17;2.30;;;25.30;99.90;;;;;;5054163;28;20380;-47
2023/10/01 03:06:47;;;;;;;3.97;2.55;;;25.30;99.90;;;;;;5053930;28;20470;-46
2023/10/01 03:09:34;;;;;;;3.10;2.20;;;25.30;99.90;;;;;;5053922;28;20020;-47
2023/10/01 03:15:23;;;;;;;5.43;2.25;;;25.30;99.90;;;;;;5053678;28;20442;-47
2023/10/01 03:18:06;;;;;;;5.40;2.00;;;25.30;99.90;;;;;;5053467;28;20033;-46
2023/10/01 03:23:11;;;;;;;4.18;2.40;;;25.30;99.90;;;;;;5053795;28;20032;-46
2023/10/01 03:25:42;;;;;;;2.63;1.90;;;25.30;99.90;;;;;;5053718;28;20461;-46
2023/10/01 03:28:25;;;;;;;3.88;2.13;;;25.30;99.90;;;;;;5053544;28;20480;-46
2023/10/01 03:31:01;;;;;;;5.03;1.95;;;25.30;99.90;;;;;;5053580;28;20037;-46
2023/10/01 03:33:30;;;;;;;5.70;2.88;;;25.30;99.90;;;;;;5053344;28;20495;-46
2023/10/01 03:35:57;;;;;;;6.00;2.10;;;25.30;99.90;;;;;;5053471;28;20045;-46
2023/10/01 03:38:24;;;;;;;8.05;3.40;;;25.30;99.90;;;;;;5053201;28;20029;-47
2023/10/01 03:41:08;;;;;;;3.70;2.15;;;25.40;99.90;;;;;;5053235;28;20043;-46
2023/10/01 03:43:35;;;;;;;6.47;2.40;;;25.40;99.90;;;;;;5053435;28;20428;-47
2023/10/01 03:46:19;;;;;;;7.10;2.60;;;25.40;99.90;;;;;;5053044;28;20025;-47
2023/10/01 03:48:58;;;;;;;5.90;2.60;;;25.40;99.90;;;;;;5053228;28;20079;-47
2023/10/01 03:54:20;;;;;;;4.40;1.90;;;25.40;99.90;;;;;;5048474;28;20028;-46
2023/10/01 03:56:56;;;;;;;4.35;2.63;;;25.40;99.90;;;;;;5050885;28;20020;-47
2023/10/01 03:59:32;;;;;;;6.22;2.35;;;25.40;99.90;;;;;;5052113;28;20024;-47
2023/10/01 04:01:58;;;;;;;5.30;1.90;;;25.40;99.90;;;;;;5042287;28;20060;-47
2023/10/01 04:04:27;;;;;;;4.28;2.00;;;25.40;99.90;;;;;;5051565;28;20026;-46
2023/10/01 04:07:03;;;;;;;5.80;2.38;;;25.40;99.90;;;;;;5051940;28;20315;-47
2023/10/01 04:09:40;;;;;;;4.68;2.45;;;25.40;99.90;;;;;;5052050;28;20329;-47
2023/10/01 04:12:54;;;;;;;6.40;2.15;;;25.40;99.90;;;;;;5052640;28;20477;-46
2023/10/01 04:14:53;;;;;;;4.75;2.20;;;25.40;99.90;;;;;;5035205;28;20025;-46
2023/10/01 04:17:20;;;;;;;6.75;2.75;;;25.40;99.90;;;;;;5052545;28;20109;-46
2023/10/01 04:19:49;;;;;;;5.40;2.30;;;25.40;99.90;;;;;;5052385;28;20021;-46
2023/10/01 04:22:21;;;;;;;5.70;2.70;;;25.40;99.90;;;;;;5052531;28;20044;-47
2023/10/01 04:25:00;;;;;;;8.80;2.30;;;25.40;99.90;;;;;;5052257;28;20039;-47
2023/10/01 04:27:30;;;;;;;11.45;2.10;;;25.40;99.90;;;;;;5052445;28;20021;-47
2023/10/01 04:30:00;;;;;;;4.38;2.40;;;25.40;99.90;;;;;;5052035;28;20476;-46
2023/10/01 04:32:27;;;;;;;3.63;2.05;;;25.40;99.90;;;;;;5052256;28;20037;-46
2023/10/01 04:35:17;;;;;;;7.47;2.20;;;25.40;99.90;;;;;;5034523;28;20082;-47
2023/10/01 04:37:43;;;;;;;6.10;2.15;;;25.40;99.90;;;;;;5052172;28;20104;-46
2023/10/01 04:42:56;;;;;;;6.10;1.75;;;25.30;99.90;;;;;;5039100;28;20078;-47
2023/10/01 04:45:33;;;;;;;6.28;2.33;;;25.40;99.90;;;;;;5052267;28;20021;-46
2023/10/01 04:48:02;;;;;;;3.90;2.17;;;25.30;99.90;;;;;;5036168;28;20348;-46
2023/10/01 04:50:29;;;;;;;3.75;2.40;;;25.30;99.90;;;;;;5052032;28;20158;-46
2023/10/01 04:52:59;;;;;;;3.25;1.95;;;25.30;99.90;;;;;;5051646;28;20013;-47
2023/10/01 04:55:28;;;;;;;1.98;1.70;;;25.30;99.90;;;;;;5052134;28;20021;-46
2023/10/01 04:57:56;;;;;;;5.15;1.95;;;25.30;99.90;;;;;;5051843;28;20048;-47
2023/10/01 05:00:25;;;;;;;6.05;2.13;;;25.30;99.90;;;;;;5049900;28;20435;-46
2023/10/01 05:02:52;;;;;;;4.78;2.03;;;25.30;99.90;;;;;;5037465;28;20129;-46
2023/10/01 05:05:25;;;;;;;5.65;1.73;;;25.30;99.90;;;;;;5050561;28;20036;-46
2023/10/01 05:08:00;;;;;;;3.10;2.00;;;25.30;99.90;;;;;;5049692;28;20029;-46
2023/10/01 05:10:27;;;;;;;2.60;2.10;;;25.30;99.90;;;;;;5050951;28;20354;-46
2023/10/01 05:12:58;;;;;;;3.58;2.10;;;25.30;99.90;;;;;;5051534;28;20032;-46
2023/10/01 05:15:35;;;;;;;4.13;2.00;;;25.20;99.90;;;;;;5051117;28;20028;-46
2023/10/01 05:18:04;;;;;;;7.60;2.38;;;25.20;99.90;;;;;;5051535;28;20025;-46
2023/10/01 05:20:31;;;;;;;7.22;2.65;;;25.20;99.90;;;;;;5051651;28;20506;-46
2023/10/01 05:23:02;;;;;;;4.85;2.38;;;25.20;99.90;;;;;;5051743;28;20113;-46
2023/10/01 05:25:31;;;;;;;6.47;2.30;;;25.20;99.90;;;;;;5051544;28;20048;-46
2023/10/01 05:27:59;;;;;;;3.88;2.10;;;25.20;99.90;;;;;;5051621;28;20021;-46
2023/10/01 05:30:42;;;;;;;3.15;2.20;;;25.20;99.90;;;;;;5051357;28;20063;-47
2023/10/01 05:33:12;;;;;;;3.22;2.03;;;25.20;99.90;;;;;;5051796;28;20061;-46
2023/10/01 05:35:41;;;;;;;3.58;1.80;;;25.20;99.90;;;;;;5034373;28;20013;-46
2023/10/01 05:38:10;;;;;;;7.82;2.95;;;25.20;99.90;;;;;;5051517;28;20028;-48
2023/10/01 05:40:37;;;;;;;3.90;2.30;;;25.20;99.90;;;;;;5051230;28;20029;-47
2023/10/01 05:43:27;;;;;;;3.33;2.05;;;25.20;99.90;;;;;;5051581;28;20025;-46
2023/10/01 05:46:01;;;;;;;5.27;2.10;;;25.20;99.90;;;;;;5050824;28;20485;-46
2023/10/01 05:48:28;;;;;;;;;;;25.30;99.90;;;;;;5051901;28;20258;-47
2023/10/01 05:50:57;;;;;;;;;;;25.20;99.90;;;;;;5051726;28;19923;-46
2023/10/01 05:53:24;;;;;;;6.55;2.00;;;25.20;99.90;;;;;;5051325;28;19905;-46
2023/10/01 05:55:51;;;;;;;6.53;2.60;;;25.20;99.90;;;;;;5051418;28;20100;-46
2023/10/01 05:58:16;;;;;;;5.10;2.00;;;25.30;99.90;;;;;;5051383;28;20266;-46
2023/10/01 06:01:05;;;;;;;4.78;1.90;;;25.20;99.90;;;;;;5051415;28;20036;-46
2023/10/01 06:03:32;;;;;;;2.80;2.05;;;25.20;99.90;;;;;;5039477;28;20025;-47
2023/10/01 06:05:58;;;;;;;3.95;1.83;;;25.20;99.90;;;;;;5051378;28;20491;-46
2023/10/01 06:08:44;;;;;;;2.80;2.33;;;25.20;99.90;;;;;;5051178;28;20032;-46
2023/10/01 06:11:15;;;;;;;4.53;2.08;;;25.20;99.90;;;;;;5051168;28;20033;-46
2023/10/01 06:13:53;;;;;;;7.47;1.83;;;25.20;99.90;;;;;;5051582;28;20021;-46
2023/10/01 06:16:24;;;;;;;7.55;2.60;;;25.20;99.90;;;;;;5051044;28;20025;-46
2023/10/01 06:18:58;;;;;;;4.13;2.10;;;25.20;99.90;;;;;;5051186;28;20039;-46
2023/10/01 06:21:32;;;;;;;5.63;2.33;;;25.20;99.90;;;;;;5050918;28;20027;-47
2023/10/01 06:23:58;;;;;;;6.32;2.38;;;25.20;99.90;;;;;;5051094;28;20025;-46
2023/10/01 06:26:37;;;;;;;10.13;2.47;;;25.20;99.90;;;;;;5052199;28;20503;-46
2023/10/01 06:29:07;;;;;;;12.48;2.72;;;25.20;99.90;;;;;;5054696;28;20469;-46
2023/10/01 06:34:39;;;;;;;14.80;2.85;;;25.20;99.90;;;;;;4973806;28;20364;-46
2023/10/01 06:37:05;;;;;;;4.78;3.30;;;25.20;99.90;;;;;;4973480;28;20357;-46
2023/10/01 06:39:35;;;;;;;8.73;3.00;;;25.20;99.90;;;;;;4985095;28;20037;-46
2023/10/01 06:42:20;;;;;;;9.40;1.95;;;25.20;99.90;;;;;;5051388;28;20116;-46
2023/10/01 06:44:48;;;;;;;5.05;2.22;;;25.20;99.90;;;;;;5042283;28;20021;-46
2023/10/01 06:47:15;;;;;;;7.05;2.92;;;25.20;99.90;;;;;;5054425;28;20381;-46
2023/10/01 06:49:57;;;;;;;7.73;2.47;;;25.20;99.90;;;;;;5036582;28;20025;-46
2023/10/01 06:52:29;;;;;;;3.28;2.38;;;25.30;99.90;;;;;;5053929;28;20029;-48
2023/10/01 06:54:56;;;;;;;6.80;2.42;;;25.30;99.90;;;;;;5054301;28;20071;-47
2023/10/01 06:57:23;;;;;;;5.40;2.20;;;25.30;99.90;;;;;;5054178;28;20032;-46
2023/10/01 06:59:49;;;;;;;3.83;2.22;;;25.30;99.90;;;;;;5053873;28;20017;-46
2023/10/01 07:02:15;;;;;;;5.55;1.92;;;25.40;99.90;;;;;;5054117;28;20033;-47
2023/10/01 07:04:41;;;;;;;2.45;2.00;;;25.40;99.90;;;;;;5054053;28;20019;-47
2023/10/01 07:07:20;;;;;;;2.28;1.52;;;25.40;99.90;;;;;;5036230;28;20029;-46
2023/10/01 07:09:46;;;;;;;3.50;2.15;;;25.40;99.90;;;;;;5054106;28;20025;-47
2023/10/01 07:12:12;;;;;;;7.60;2.20;;;25.50;99.90;;;;;;5053941;28;20029;-47
2023/10/01 07:14:38;;;;;;;6.70;2.08;;;25.50;99.90;;;;;;5053784;28;20025;-46
2023/10/01 07:17:25;;;;;;;3.33;1.63;;;25.60;99.90;;;;;;5053828;28;20031;-47
2023/10/01 07:20:02;;;;;;;3.28;1.95;;;25.60;99.90;;;;;;5053800;28;20073;-47
2023/10/01 07:22:31;;;;;;;2.72;2.05;;;25.60;99.90;;;;;;5053795;28;20048;-47
2023/10/01 07:24:59;;;;;;;3.45;1.92;;;25.70;99.90;;;;;;5053495;28;20033;-47
2023/10/01 07:27:28;;;;;;;3.53;1.98;;;25.80;99.90;;;;;;5053624;28;20108;-46
2023/10/01 07:29:54;;;;;;;4.50;1.70;;;25.80;99.90;;;;;;5035596;28;20033;-47
2023/10/01 07:32:23;;;;;;;3.13;1.90;;;25.80;99.90;;;;;;5053544;28;20039;-46
2023/10/01 07:34:55;;;;;;;3.28;1.75;;;25.80;99.90;;;;;;5053543;28;20083;-46
2023/10/01 07:37:31;;;;;;;5.45;2.85;;;25.90;99.90;;;;;;5034952;28;20020;-46
2023/10/01 07:40:09;;;;;;;4.03;2.20;;;25.90;99.90;;;;;;5053318;28;20032;-46
2023/10/01 07:42:46;;;;;;;4.88;3.63;;;26.00;99.90;;;;;;5053111;28;20108;-47
2023/10/01 07:45:23;;;;;;;8.48;3.72;;;26.00;99.90;;;;;;5053279;28;20021;-46
2023/10/01 07:47:49;;;;;;;4.88;3.40;;;26.10;99.90;;;;;;5053134;28;20021;-47
2023/10/01 07:50:16;;;;;;;7.00;3.83;;;26.10;99.90;;;;;;5035286;28;20449;-47
2023/10/01 07:52:46;;;;;;;4.82;2.78;;;26.20;99.90;;;;;;5052979;28;20017;-47
2023/10/01 07:55:30;;;;;;;6.97;2.40;;;26.20;99.90;;;;;;5053002;28;20021;-47
2023/10/01 08:00:43;;;;;;;11.95;5.05;;;26.30;99.90;;;;;;5052966;28;20381;-48
2023/10/01 08:05:47;;;;;;;4.93;3.20;;;26.40;99.90;;;;;;5052992;28;20028;-47
2023/10/01 08:08:47;;;;;;;6.13;3.08;;;26.40;99.90;;;;;;5052699;28;20526;-47
2023/10/01 08:11:55;;;;;;;5.85;3.00;;;26.40;99.90;;;;;;5051815;28;20101;-47
2023/10/01 08:13:55;;;;;;;7.40;2.95;;;26.50;99.90;;;;;;5038043;28;20017;-47
2023/10/01 08:16:23;;;;;;;11.80;3.55;;;26.50;99.90;;;;;;5052455;28;20540;-47
2023/10/01 08:18:51;;;;;;;8.95;3.35;;;26.50;99.90;;;;;;5052662;28;20024;-47
2023/10/01 08:21:17;;;;;;;6.15;2.95;;;26.60;99.90;;;;;;5052701;28;20050;-46
2023/10/01 08:23:54;;;;;;;3.35;2.35;;;26.60;99.90;;;;;;5052627;28;20469;-47
2023/10/01 08:29:06;;;;;;;8.70;2.95;;;26.80;99.90;;;;;;5051328;28;20491;-48
2023/10/01 08:34:22;;;;;;;7.55;3.72;;;26.90;99.90;;;;;;5051902;28;20029;-47
2023/10/01 08:37:09;;;;;;;9.63;5.25;;;26.90;99.90;;;;;;5051822;28;20124;-47
2023/10/01 08:39:35;;;;;;;4.30;3.00;;;27.00;99.90;;;;;;5052263;28;20017;-48
2023/10/01 08:42:08;;;;;;;7.82;3.13;;;27.00;99.90;;;;;;5051894;28;20071;-46
2023/10/01 08:44:50;;;;;;;4.55;2.50;;;27.10;99.90;;;;;;5039930;28;20020;-47
2023/10/01 08:47:26;;;;;;;5.40;3.30;;;27.20;99.90;;;;;;5046237;28;20031;-47
2023/10/01 08:49:52;;;;;;;6.80;2.65;;;27.20;99.90;;;;;;5039062;28;20032;-47
2023/10/01 08:52:26;;;;;;;6.88;3.08;;;27.30;99.90;;;;;;5051115;28;20047;-46
2023/10/01 08:54:56;;;;;;;17.98;4.05;;;27.30;99.90;;;;;;5043103;28;20107;-46
2023/10/01 08:57:37;;;;;;;4.93;3.40;;;27.40;99.90;;;;;;5051742;28;20525;-47
2023/10/01 09:00:19;;;;;;;8.43;3.42;;;27.40;99.90;;;;;;5040074;28;20032;-45
2023/10/01 09:02:53;;;;;;;8.40;2.97;;;27.40;99.90;;;;;;5051335;28;20554;-47
2023/10/01 09:05:26;;;;;;;8.48;4.57;;;27.50;99.90;;;;;;5051965;28;20388;-46
2023/10/01 09:10:53;;;;;;;9.25;6.50;;;27.60;99.90;;;;;;5052031;28;20191;-48
2023/10/01 09:13:22;;;;;;;13.38;7.28;;;27.70;99.90;;;;;;5032825;28;20028;-48
2023/10/01 09:15:55;;;;;;;7.55;4.22;;;27.70;99.90;;;;;;5051484;28;20033;-47
2023/10/01 09:18:25;;;;;;;5.57;4.05;;;27.80;99.90;;;;;;5051764;28;20020;-47
2023/10/01 09:21:20;;;;;;;10.00;4.40;;;27.80;99.90;;;;;;5051497;28;20029;-47
2023/10/01 09:23:56;;;;;;;7.65;3.47;;;27.90;99.90;;;;;;5051325;28;20017;-46
2023/10/01 09:26:39;;;;;;;4.63;3.57;;;27.90;99.90;;;;;;5037850;28;20500;-47
2023/10/01 09:29:25;;;;;;;6.13;3.92;;;28.00;99.90;;;;;;5029987;28;20108;-47
2023/10/01 09:31:58;;;;;;;4.28;2.70;;;28.00;99.90;;;;;;5045378;28;20386;-46
2023/10/01 09:34:36;;;;;;;3.28;2.40;;;28.10;99.90;;;;;;5040011;28;20037;-46
2023/10/01 09:37:12;;;;;;;6.18;3.05;;;28.20;99.90;;;;;;5045612;28;20037;-47
2023/10/01 09:39:43;;;;;;;5.95;2.25;;;28.20;99.90;;;;;;5043663;28;20545;-47
2023/10/01 09:42:24;;;;;;;4.43;2.70;;;28.30;99.90;;;;;;5042962;28;20144;-47
2023/10/01 09:44:52;;;;;;;3.33;2.20;;;28.30;99.90;;;;;;5043952;28;20097;-46
2023/10/01 09:47:24;;;;;;;3.55;2.10;;;28.40;99.90;;;;;;5043030;28;20025;-46
2023/10/01 09:49:52;;;;;;;4.93;2.42;;;28.50;99.90;;;;;;5013917;28;20074;-47
2023/10/01 09:52:48;;;;;;;7.10;2.92;;;28.50;99.90;;;;;;5046218;28;20040;-46
2023/10/01 09:55:26;;;;;;;6.55;2.70;;;28.50;99.90;;;;;;5042778;28;20029;-46
2023/10/01 09:57:55;;;;;;;7.38;2.42;;;28.50;99.90;;;;;;5047622;28;20100;-46
2023/10/01 10:00:39;;;;;;;3.90;2.05;;;28.50;99.90;;;;;;5049904;28;20064;-46
2023/10/01 10:03:11;;;;;;;7.10;2.72;;;28.60;99.90;;;;;;5032413;28;20492;-46
2023/10/01 10:05:40;;;;;;;11.48;3.58;;;28.60;99.90;;;;;;5048819;28;20033;-46
2023/10/01 10:08:15;;;;;;;5.88;2.85;;;28.60;99.90;;;;;;5049691;28;20017;-46
2023/10/01 10:11:08;;;;;;;3.85;3.17;;;28.70;99.90;;;;;;5044072;28;20479;-44
2023/10/01 10:13:48;;;;;;;5.75;3.75;;;28.70;99.90;;;;;;5047810;28;20528;-45
2023/10/01 10:16:33;;;;;;;3.50;2.35;;;28.80;99.90;;;;;;5028706;28;20053;-45
2023/10/01 10:19:08;;;;;;;4.63;2.60;;;28.80;99.90;;;;;;5028198;28;20041;-45
2023/10/01 10:24:46;;;;;;;6.38;2.50;;;29.00;99.90;;;;;;5051245;28;20032;-46
2023/10/01 10:27:25;;;;;;;6.40;2.50;;;29.00;99.90;;;;;;5049027;28;20048;-46
2023/10/01 10:29:57;;;;;;;6.45;3.97;;;29.00;99.90;;;;;;5032068;28;20500;-46
2023/10/01 10:32:42;;;;;;;8.35;5.80;;;29.00;99.90;;;;;;5049457;28;20455;-46
2023/10/01 10:35:14;;;;;;;5.03;3.47;;;29.10;99.90;;;;;;5049957;28;20064;-45
2023/10/01 10:37:44;;;;;;;7.18;3.03;;;29.10;99.90;;;;;;5031795;28;20496;-46
2023/10/01 10:42:46;;;;;;;3.17;2.42;;;29.10;99.90;;;;;;5050767;28;20025;-47
2023/10/01 10:45:22;;;;;;;6.78;2.72;;;29.10;99.90;;;;;;5032289;28;20496;-44
2023/10/01 10:48:02;;;;;;;4.45;2.42;;;29.20;99.90;;;;;;5019310;28;20618;-46
2023/10/01 10:50:54;;;;;;;6.65;3.13;;;29.20;99.90;;;;;;5043956;28;20095;-47
2023/10/01 10:53:21;;;;;;;4.82;2.58;;;29.20;99.90;;;;;;5045278;28;20057;-45
2023/10/01 10:55:56;;;;;;;8.88;4.72;;;29.30;99.90;;;;;;5044583;28;20049;-45
2023/10/01 10:58:28;;;;;;;4.25;3.45;;;29.30;99.90;;;;;;5050387;28;20013;-44
2023/10/01 11:00:55;;;;;;;4.63;3.17;;;29.40;99.90;;;;;;5050137;28;20116;-45
2023/10/01 11:03:40;;;;;;;8.95;3.20;;;29.40;99.90;;;;;;5050543;28;20509;-44
2023/10/01 11:07:01;;;;;;;10.30;4.25;;;29.40;99.90;;;;;;5047466;28;20035;-44
2023/10/01 11:09:30;;;;;;;5.22;3.40;;;29.50;99.90;;;;;;5049460;28;20157;-46
2023/10/01 11:12:08;;;;;;;6.05;3.55;;;29.50;99.90;;;;;;5049604;28;20032;-46
2023/10/01 11:14:35;;;;;;;6.75;3.50;;;29.60;99.90;;;;;;5049954;28;20028;-46
2023/10/01 11:17:01;;;;;;;4.18;3.55;;;29.60;99.90;;;;;;5046873;28;20120;-46
2023/10/01 11:19:35;;;;;;;7.50;3.55;;;29.70;99.90;;;;;;5042670;28;20482;-47
2023/10/01 11:22:06;;;;;;;9.38;4.55;;;29.70;99.90;;;;;;5046805;28;20052;-46
2023/10/01 11:24:42;;;;;;;8.55;4.40;;;29.70;99.90;;;;;;5049570;28;20543;-48
2023/10/01 11:27:24;;;;;;;8.80;3.83;;;29.70;99.90;;;;;;5048152;28;20485;-47
2023/10/01 11:30:13;;;;;;;9.70;3.70;;;29.70;99.90;;;;;;5049011;28;20116;-47
2023/10/01 11:33:30;;;;;;;5.88;3.67;;;29.80;99.90;;;;;;5049729;28;20025;-46
2023/10/01 11:36:22;;;;;;;9.35;4.15;;;29.80;99.90;;;;;;5042816;28;20163;-45
2023/10/01 11:38:47;;;;;;;9.95;4.95;;;29.90;99.90;;;;;;5045528;28;20025;-46
2023/10/01 11:41:13;;;;;;;7.65;4.78;;;29.90;99.90;;;;;;5049288;28;20083;-46
2023/10/01 11:44:00;;;;;;;11.23;4.75;;;29.90;99.90;;;;;;5050127;28;20481;-45
2023/10/01 11:46:32;;;;;;;8.05;4.32;;;29.90;99.90;;;;;;5048234;28;20025;-46
2023/10/01 11:49:09;;;;;;;5.10;3.80;;;29.90;99.90;;;;;;5040416;28;20022;-46
2023/10/01 11:51:49;;;;;;;6.03;3.10;;;30.00;99.90;;;;;;5045526;28;20472;-45
2023/10/01 11:54:25;;;;;;;6.45;3.60;;;30.00;99.90;;;;;;5047580;28;20036;-47
2023/10/01 11:57:07;;;;;;;6.65;4.50;;;30.00;99.90;;;;;;5049018;28;20348;-47
2023/10/01 11:59:36;;;;;;;4.15;2.95;;;30.10;99.90;;;;;;5047640;28;20108;-47
2023/10/01 12:02:18;;;;;;;9.45;2.80;;;30.10;99.90;;;;;;5049356;28;20045;-46
2023/10/01 12:04:44;;;;;;;7.90;3.85;;;30.10;99.90;;;;;;5037457;28;20096;-47
2023/10/01 12:07:17;;;;;;;7.15;4.25;;;30.20;99.90;;;;;;5046047;28;20024;-47
2023/10/01 12:09:50;;;;;;;7.00;4.60;;;30.20;99.90;;;;;;5048771;28;20020;-46
2023/10/01 12:12:21;;;;;;;6.18;3.80;;;30.20;99.90;;;;;;5048803;28;20118;-46
2023/10/01 12:15:33;;;;;;;3.72;2.70;;;30.20;99.90;;;;;;5048831;28;20017;-47
2023/10/01 12:17:46;;;;;;;6.57;3.10;;;30.30;99.90;;;;;;5046041;28;20437;-47
2023/10/01 12:20:22;;;;;;;5.55;3.97;;;30.40;99.90;;;;;;5048778;28;20032;-47
2023/10/01 12:23:11;;;;;;;5.90;3.50;;;30.40;99.90;;;;;;5048292;28;20108;-46
2023/10/01 12:26:31;;;;;;;5.00;3.05;;;30.40;99.90;;;;;;5022544;28;20026;-47
2023/10/01 12:29:10;;;;;;;7.40;4.05;;;30.50;99.90;;;;;;5048342;28;20024;-48
2023/10/01 12:31:25;;;;;;;5.45;3.08;;;30.60;99.90;;;;;;5048380;28;20440;-47
2023/10/01 12:33:58;;;;;;;4.88;3.17;;;30.60;99.90;;;;;;5039469;28;20013;-48
2023/10/01 12:41:56;;;;;;;5.10;3.28;;;30.70;99.90;;;;;;5048460;28;20021;-48
2023/10/01 12:44:28;;;;;;;3.45;2.97;;;30.70;99.90;;;;;;5048626;28;20032;-47
2023/10/01 12:46:55;;;;;;;4.72;2.55;;;30.70;99.90;;;;;;5047785;28;20544;-47
2023/10/01 12:49:21;;;;;;;3.80;2.63;;;30.70;99.90;;;;;;5030765;28;20063;-48
2023/10/01 12:51:53;;;;;;;4.93;3.00;;;30.70;99.90;;;;;;5042864;28;20082;-47
2023/10/01 12:54:27;;;;;;;4.35;2.50;;;30.80;99.90;;;;;;5048082;28;20360;-47
2023/10/01 12:57:09;;;;;;;6.40;2.30;;;30.80;99.90;;;;;;5048045;28;20473;-47
2023/10/01 12:59:58;;;;;;;6.30;2.45;;;30.80;99.90;;;;;;5030315;28;20028;-47
2023/10/01 13:07:40;;;;;;;7.93;2.90;;;30.90;99.90;;;;;;5048424;28;20090;-47
2023/10/01 13:10:07;;;;;;;5.47;2.95;;;30.90;99.90;;;;;;5048059;28;20266;-47
2023/10/01 13:12:39;;;;;;;2.97;2.47;;;30.90;99.90;;;;;;5048818;28;20062;-47
2023/10/01 13:15:14;;;;;;;5.93;2.83;;;30.80;99.90;;;;;;5046223;28;20111;-47
2023/10/01 13:17:44;;;;;;;3.72;2.80;;;30.90;99.90;;;;;;5045347;28;20025;-46
2023/10/01 13:20:25;;;;;;;4.13;2.63;;;31.00;99.90;;;;;;5047946;28;20025;-49
2023/10/01 13:22:52;;;;;;;5.35;2.60;;;30.90;99.90;;;;;;5034341;28;20022;-45
2023/10/01 13:25:20;;;;;;;6.05;3.00;;;31.00;99.90;;;;;;5029569;28;20028;-46
2023/10/01 13:27:50;;;;;;;;;;;31.00;99.90;;;;;;5048466;28;20033;-46
2023/10/01 13:30:20;;;;;;;5.72;3.05;;;31.00;99.90;;;;;;5047895;28;19912;-46
2023/10/01 13:35:49;;;;;;;8.80;4.75;;;31.10;99.90;;;;;;5045404;28;20464;-45
2023/10/01 14:11:08;;;;;;;5.63;2.80;;;31.30;99.90;;;;;;5049091;28;20043;-46
2023/10/01 14:13:35;;;;;;;5.10;2.83;;;31.20;99.90;;;;;;5051197;28;20017;-47
2023/10/01 14:16:23;;;;;;;5.75;2.40;;;31.20;99.90;;;;;;5050838;28;20021;-46
2023/10/01 14:18:57;;;;;;;6.55;2.50;;;31.20;99.90;;;;;;5028317;28;20029;-46
2023/10/01 14:21:29;;;;;;;3.70;2.47;;;31.20;99.90;;;;;;5047476;28;20029;-46
2023/10/01 14:23:57;;;;;;;4.65;2.47;;;31.20;99.90;;;;;;5051012;28;20025;-47
2023/10/01 14:26:35;;;;;;;6.95;2.35;;;31.10;99.90;;;;;;5049022;28;20024;-46
2023/10/01 14:29:05;;;;;;;3.38;2.00;;;31.10;99.90;;;;;;5050844;28;20071;-45
2023/10/01 14:31:41;;;;;;;3.45;2.03;;;31.10;99.90;;;;;;5050310;28;20552;-46
2023/10/01 14:34:08;;;;;;;2.60;2.00;;;31.10;99.90;;;;;;5043693;28;20433;-46
2023/10/01 14:36:41;;;;;;;2.50;2.25;;;31.00;99.90;;;;;;5046245;28;20096;-46
2023/10/01 14:39:12;;;;;;;2.92;2.05;;;31.00;99.90;;;;;;5048224;28;20068;-46
2023/10/01 14:41:41;;;;;;;4.28;2.17;;;30.90;99.90;;;;;;5027834;28;20420;-47